sensor_id;sensor_type;location;lat;lon;timestamp;temperature;humidity
490;DHT22;231;48.120;11.576;2023-09-30T00:02:20;16.30;35.30
490;DHT22;231;48.120;11.576;2023-09-30T00:04:47;16.20;49.40
490;DHT22;231;48.120;11.576;2023-09-30T00:07:14;16.20;36.60
490;DHT22;231;48.120;11.576;2023-09-30T00:09:41;16.10;61.70
490;DHT22;231;48.120;11.576;2023-09-30T00:12:08;16.00;62.40
490;DHT22;231;48.120;11.576;2023-09-30T00:14:35;15.80;62.70
490;DHT22;231;48.120;11.576;2023-09-30T00:17:03;15.90;63.40
490;DHT22;231;48.120;11.576;2023-09-30T00:19:31;15.60;66.70
490;DHT22;231;48.120;11.576;2023-09-30T00:21:58;15.60;65.30
490;DHT22;231;48.120;11.576;2023-09-30T00:24:26;15.60;53.30
490;DHT22;231;48.120;11.576;2023-09-30T00:26:53;16.10;59.80
490;DHT22;231;48.120;11.576;2023-09-30T00:29:20;15.60;61.30
490;DHT22;231;48.120;11.576;2023-09-30T00:31:46;15.70;66.90
490;DHT22;231;48.120;11.576;2023-09-30T00:36:42;16.50;52.40
490;DHT22;231;48.120;11.576;2023-09-30T00:39:08;16.10;50.40
490;DHT22;231;48.120;11.576;2023-09-30T00:41:38;16.50;59.80
490;DHT22;231;48.120;11.576;2023-09-30T00:44:05;16.80;48.20
490;DHT22;231;48.120;11.576;2023-09-30T00:46:35;15.40;46.60
490;DHT22;231;48.120;11.576;2023-09-30T00:49:02;16.00;46.50
490;DHT22;231;48.120;11.576;2023-09-30T00:51:30;16.60;61.70
490;DHT22;231;48.120;11.576;2023-09-30T00:54:00;16.30;35.90
490;DHT22;231;48.120;11.576;2023-09-30T00:56:29;16.20;36.80
490;DHT22;231;48.120;11.576;2023-09-30T01:06:20;16.20;54.00
490;DHT22;231;48.120;11.576;2023-09-30T01:08:47;16.10;68.70
490;DHT22;231;48.120;11.576;2023-09-30T01:11:15;15.80;43.20
490;DHT22;231;48.120;11.576;2023-09-30T01:23:36;16.50;57.30
490;DHT22;231;48.120;11.576;2023-09-30T01:40:50;15.90;58.40
490;DHT22;231;48.120;11.576;2023-09-30T01:48:11;16.20;40.50
490;DHT22;231;48.120;11.576;2023-09-30T02:00:29;16.40;71.80
490;DHT22;231;48.120;11.576;2023-09-30T02:07:51;15.90;57.10
490;DHT22;231;48.120;11.576;2023-09-30T02:15:14;16.00;60.80
490;DHT22;231;48.120;11.576;2023-09-30T02:22:42;16.10;77.50
490;DHT22;231;48.120;11.576;2023-09-30T02:25:10;16.10;61.90
490;DHT22;231;48.120;11.576;2023-09-30T02:32:34;16.20;45.90
490;DHT22;231;48.120;11.576;2023-09-30T02:35:02;16.30;69.30
490;DHT22;231;48.120;11.576;2023-09-30T02:40:01;15.90;57.50
490;DHT22;231;48.120;11.576;2023-09-30T02:44:59;16.30;42.00
490;DHT22;231;48.120;11.576;2023-09-30T02:47:26;16.60;58.60
490;DHT22;231;48.120;11.576;2023-09-30T02:49:56;16.40;42.60
490;DHT22;231;48.120;11.576;2023-09-30T02:52:23;16.40;57.70
490;DHT22;231;48.120;11.576;2023-09-30T02:54:50;16.70;67.20
490;DHT22;231;48.120;11.576;2023-09-30T03:02:12;16.00;72.00
490;DHT22;231;48.120;11.576;2023-09-30T03:12:05;15.70;50.60
490;DHT22;231;48.120;11.576;2023-09-30T03:21:56;15.50;78.10
490;DHT22;231;48.120;11.576;2023-09-30T03:29:19;15.50;86.10
490;DHT22;231;48.120;11.576;2023-09-30T03:44:09;15.10;65.00
490;DHT22;231;48.120;11.576;2023-09-30T03:49:03;15.30;85.10
490;DHT22;231;48.120;11.576;2023-09-30T04:03:52;15.30;75.40
490;DHT22;231;48.120;11.576;2023-09-30T04:16:13;15.90;52.80
490;DHT22;231;48.120;11.576;2023-09-30T04:30:59;15.40;81.30
490;DHT22;231;48.120;11.576;2023-09-30T04:35:58;15.70;52.60
490;DHT22;231;48.120;11.576;2023-09-30T04:50:47;15.90;88.10
490;DHT22;231;48.120;11.576;2023-09-30T04:53:13;15.50;77.60
490;DHT22;231;48.120;11.576;2023-09-30T04:55:41;15.50;76.00
490;DHT22;231;48.120;11.576;2023-09-30T05:00:36;15.40;86.40
490;DHT22;231;48.120;11.576;2023-09-30T05:12:55;14.30;96.30
490;DHT22;231;48.120;11.576;2023-09-30T05:20:18;14.40;99.60
490;DHT22;231;48.120;11.576;2023-09-30T05:25:16;14.50;85.70
490;DHT22;231;48.120;11.576;2023-09-30T05:27:43;14.50;90.10
490;DHT22;231;48.120;11.576;2023-09-30T05:30:11;15.20;98.10
490;DHT22;231;48.120;11.576;2023-09-30T05:35:07;14.90;99.40
490;DHT22;231;48.120;11.576;2023-09-30T05:37:39;14.80;92.10
490;DHT22;231;48.120;11.576;2023-09-30T05:40:07;14.70;97.50
490;DHT22;231;48.120;11.576;2023-09-30T05:45:11;14.90;87.50
490;DHT22;231;48.120;11.576;2023-09-30T05:47:38;15.10;94.90
490;DHT22;231;48.120;11.576;2023-09-30T05:50:06;16.00;70.50
490;DHT22;231;48.120;11.576;2023-09-30T05:59:58;15.60;62.60
490;DHT22;231;48.120;11.576;2023-09-30T06:14:42;16.30;74.80
490;DHT22;231;48.120;11.576;2023-09-30T06:17:11;17.60;44.10
490;DHT22;231;48.120;11.576;2023-09-30T06:31:54;17.30;46.30
490;DHT22;231;48.120;11.576;2023-09-30T06:51:36;19.00;20.00
490;DHT22;231;48.120;11.576;2023-09-30T06:59:01;19.80;17.30
490;DHT22;231;48.120;11.576;2023-09-30T07:01:28;20.10;29.10
490;DHT22;231;48.120;11.576;2023-09-30T07:03:55;20.60;27.70
490;DHT22;231;48.120;11.576;2023-09-30T07:06:23;20.70;13.40
490;DHT22;231;48.120;11.576;2023-09-30T07:08:51;20.80;25.90
490;DHT22;231;48.120;11.576;2023-09-30T07:11:26;20.50;29.10
490;DHT22;231;48.120;11.576;2023-09-30T07:13:53;20.80;25.30
490;DHT22;231;48.120;11.576;2023-09-30T07:16:20;21.40;37.20
490;DHT22;231;48.120;11.576;2023-09-30T07:18:47;19.80;11.00
490;DHT22;231;48.120;11.576;2023-09-30T07:21:14;21.30;23.40
490;DHT22;231;48.120;11.576;2023-09-30T07:26:09;22.10;22.40
490;DHT22;231;48.120;11.576;2023-09-30T07:28:36;22.20;21.80
490;DHT22;231;48.120;11.576;2023-09-30T07:31:03;22.70;21.00
490;DHT22;231;48.120;11.576;2023-09-30T07:33:29;21.90;20.20
490;DHT22;231;48.120;11.576;2023-09-30T07:35:56;22.90;24.20
490;DHT22;231;48.120;11.576;2023-09-30T07:38:24;22.40;30.80
490;DHT22;231;48.120;11.576;2023-09-30T07:41:06;22.60;7.30
490;DHT22;231;48.120;11.576;2023-09-30T07:43:37;22.60;7.80
490;DHT22;231;48.120;11.576;2023-09-30T07:46:05;22.50;7.90
490;DHT22;231;48.120;11.576;2023-09-30T07:48:33;22.30;8.10
490;DHT22;231;48.120;11.576;2023-09-30T07:51:00;22.30;8.30
490;DHT22;231;48.120;11.576;2023-09-30T07:53:27;22.40;8.10
490;DHT22;231;48.120;11.576;2023-09-30T07:55:54;22.50;8.00
490;DHT22;231;48.120;11.576;2023-09-30T07:58:22;22.90;7.20
490;DHT22;231;48.120;11.576;2023-09-30T08:00:50;23.10;6.40
490;DHT22;231;48.120;11.576;2023-09-30T08:03:17;23.30;6.00
490;DHT22;231;48.120;11.576;2023-09-30T08:05:44;23.40;5.80
490;DHT22;231;48.120;11.576;2023-09-30T08:08:12;23.40;5.70
490;DHT22;231;48.120;11.576;2023-09-30T08:10:40;23.70;5.30
490;DHT22;231;48.120;11.576;2023-09-30T08:13:06;24.60;4.10
490;DHT22;231;48.120;11.576;2023-09-30T08:15:35;25.10;2.50
490;DHT22;231;48.120;11.576;2023-09-30T08:18:04;25.70;1.70
490;DHT22;231;48.120;11.576;2023-09-30T08:20:33;26.80;1.00
490;DHT22;231;48.120;11.576;2023-09-30T08:23:00;27.20;1.00
490;DHT22;231;48.120;11.576;2023-09-30T08:25:27;26.90;1.00
490;DHT22;231;48.120;11.576;2023-09-30T08:27:54;26.60;1.00
490;DHT22;231;48.120;11.576;2023-09-30T08:30:21;26.50;1.00
490;DHT22;231;48.120;11.576;2023-09-30T08:32:48;27.40;1.00
490;DHT22;231;48.120;11.576;2023-09-30T08:35:19;29.40;1.00
490;DHT22;231;48.120;11.576;2023-09-30T08:37:46;31.30;1.00
490;DHT22;231;48.120;11.576;2023-09-30T08:40:12;32.70;1.00
490;DHT22;231;48.120;11.576;2023-09-30T08:42:39;32.90;1.00
490;DHT22;231;48.120;11.576;2023-09-30T08:45:10;32.40;1.00
490;DHT22;231;48.120;11.576;2023-09-30T08:47:37;31.70;1.00
490;DHT22;231;48.120;11.576;2023-09-30T08:50:06;31.10;1.00
490;DHT22;231;48.120;11.576;2023-09-30T08:52:37;30.50;1.00
490;DHT22;231;48.120;11.576;2023-09-30T08:55:06;30.40;1.00
490;DHT22;231;48.120;11.576;2023-09-30T08:57:33;30.50;1.00
490;DHT22;231;48.120;11.576;2023-09-30T09:00:03;30.40;1.00
490;DHT22;231;48.120;11.576;2023-09-30T09:02:30;29.90;1.00
490;DHT22;231;48.120;11.576;2023-09-30T09:04:58;29.50;1.00
490;DHT22;231;48.120;11.576;2023-09-30T09:07:25;29.80;1.00
490;DHT22;231;48.120;11.576;2023-09-30T09:10:05;30.50;1.00
490;DHT22;231;48.120;11.576;2023-09-30T09:12:34;32.20;1.00
490;DHT22;231;48.120;11.576;2023-09-30T09:15:02;33.90;1.00
490;DHT22;231;48.120;11.576;2023-09-30T09:17:42;35.20;1.00
490;DHT22;231;48.120;11.576;2023-09-30T09:20:10;35.20;1.00
490;DHT22;231;48.120;11.576;2023-09-30T09:22:40;35.30;1.00
490;DHT22;231;48.120;11.576;2023-09-30T09:25:09;36.50;1.00
490;DHT22;231;48.120;11.576;2023-09-30T09:27:37;37.70;1.00
490;DHT22;231;48.120;11.576;2023-09-30T09:30:17;37.80;1.00
490;DHT22;231;48.120;11.576;2023-09-30T09:32:55;37.00;1.00
490;DHT22;231;48.120;11.576;2023-09-30T09:35:23;35.80;1.00
490;DHT22;231;48.120;11.576;2023-09-30T09:37:55;34.60;1.00
490;DHT22;231;48.120;11.576;2023-09-30T09:40:26;33.50;1.00
490;DHT22;231;48.120;11.576;2023-09-30T09:42:54;32.50;1.00
490;DHT22;231;48.120;11.576;2023-09-30T09:45:21;31.40;1.00
490;DHT22;231;48.120;11.576;2023-09-30T09:48:14;30.50;1.00
490;DHT22;231;48.120;11.576;2023-09-30T09:50:41;30.00;1.00
490;DHT22;231;48.120;11.576;2023-09-30T09:53:14;30.00;1.00
490;DHT22;231;48.120;11.576;2023-09-30T09:55:44;30.00;1.00
490;DHT22;231;48.120;11.576;2023-09-30T10:05:02;34.90;1.00
490;DHT22;231;48.120;11.576;2023-09-30T10:07:33;36.60;1.00
490;DHT22;231;48.120;11.576;2023-09-30T10:10:07;37.70;1.00
490;DHT22;231;48.120;11.576;2023-09-30T10:12:39;38.50;1.00
490;DHT22;231;48.120;11.576;2023-09-30T10:15:37;39.00;1.00
490;DHT22;231;48.120;11.576;2023-09-30T10:18:06;39.30;1.00
490;DHT22;231;48.120;11.576;2023-09-30T10:20:35;39.40;1.00
490;DHT22;231;48.120;11.576;2023-09-30T10:23:22;39.40;1.00
490;DHT22;231;48.120;11.576;2023-09-30T10:25:53;39.70;1.00
490;DHT22;231;48.120;11.576;2023-09-30T10:28:40;39.90;1.00
490;DHT22;231;48.120;11.576;2023-09-30T10:31:12;39.50;1.00
490;DHT22;231;48.120;11.576;2023-09-30T10:34:21;39.10;1.00
490;DHT22;231;48.120;11.576;2023-09-30T10:36:51;38.30;1.00
490;DHT22;231;48.120;11.576;2023-09-30T10:42:43;36.80;1.00
490;DHT22;231;48.120;11.576;2023-09-30T10:45:45;35.90;1.00
490;DHT22;231;48.120;11.576;2023-09-30T10:48:36;35.20;1.00
490;DHT22;231;48.120;11.576;2023-09-30T10:51:14;34.40;1.00
490;DHT22;231;48.120;11.576;2023-09-30T10:53:44;33.70;1.00
490;DHT22;231;48.120;11.576;2023-09-30T10:56:12;33.30;1.00
490;DHT22;231;48.120;11.576;2023-09-30T10:58:42;32.90;1.00
490;DHT22;231;48.120;11.576;2023-09-30T11:01:11;32.60;1.00
490;DHT22;231;48.120;11.576;2023-09-30T11:03:39;32.10;1.00
490;DHT22;231;48.120;11.576;2023-09-30T11:06:07;31.80;1.00
490;DHT22;231;48.120;11.576;2023-09-30T11:08:35;31.50;1.00
490;DHT22;231;48.120;11.576;2023-09-30T11:11:03;32.00;1.00
490;DHT22;231;48.120;11.576;2023-09-30T11:13:34;33.00;1.00
490;DHT22;231;48.120;11.576;2023-09-30T11:16:02;34.00;1.00
490;DHT22;231;48.120;11.576;2023-09-30T11:18:32;34.90;1.00
490;DHT22;231;48.120;11.576;2023-09-30T11:21:07;35.10;1.00
490;DHT22;231;48.120;11.576;2023-09-30T11:23:35;35.00;1.00
490;DHT22;231;48.120;11.576;2023-09-30T11:26:03;35.20;1.00
490;DHT22;231;48.120;11.576;2023-09-30T11:28:38;34.90;1.00
490;DHT22;231;48.120;11.576;2023-09-30T11:31:09;34.00;1.00
490;DHT22;231;48.120;11.576;2023-09-30T11:33:52;33.30;1.00
490;DHT22;231;48.120;11.576;2023-09-30T11:36:22;32.60;1.00
490;DHT22;231;48.120;11.576;2023-09-30T11:38:51;32.50;1.00
490;DHT22;231;48.120;11.576;2023-09-30T11:41:19;32.50;1.00
490;DHT22;231;48.120;11.576;2023-09-30T11:44:01;33.00;1.00
490;DHT22;231;48.120;11.576;2023-09-30T11:46:30;33.70;1.00
490;DHT22;231;48.120;11.576;2023-09-30T11:49:01;34.30;1.00
490;DHT22;231;48.120;11.576;2023-09-30T11:51:29;34.40;1.00
490;DHT22;231;48.120;11.576;2023-09-30T11:53:57;33.90;1.00
490;DHT22;231;48.120;11.576;2023-09-30T11:56:24;33.40;1.00
490;DHT22;231;48.120;11.576;2023-09-30T11:58:56;32.80;1.00
490;DHT22;231;48.120;11.576;2023-09-30T12:01:24;32.30;1.00
490;DHT22;231;48.120;11.576;2023-09-30T12:03:52;31.90;1.00
490;DHT22;231;48.120;11.576;2023-09-30T12:06:23;31.70;1.00
490;DHT22;231;48.120;11.576;2023-09-30T12:08:51;31.60;1.00
490;DHT22;231;48.120;11.576;2023-09-30T12:11:18;32.10;1.00
490;DHT22;231;48.120;11.576;2023-09-30T12:13:46;32.50;1.00
490;DHT22;231;48.120;11.576;2023-09-30T12:16:14;32.80;1.00
490;DHT22;231;48.120;11.576;2023-09-30T12:18:42;33.00;1.00
490;DHT22;231;48.120;11.576;2023-09-30T12:21:10;33.20;1.00
490;DHT22;231;48.120;11.576;2023-09-30T12:23:40;33.40;1.00
490;DHT22;231;48.120;11.576;2023-09-30T12:26:08;33.80;1.00
490;DHT22;231;48.120;11.576;2023-09-30T12:28:37;33.80;1.00
490;DHT22;231;48.120;11.576;2023-09-30T12:31:06;33.90;1.00
490;DHT22;231;48.120;11.576;2023-09-30T12:33:33;34.20;1.00
490;DHT22;231;48.120;11.576;2023-09-30T12:36:00;34.50;1.00
490;DHT22;231;48.120;11.576;2023-09-30T12:38:27;34.50;1.00
490;DHT22;231;48.120;11.576;2023-09-30T12:40:56;34.00;1.00
490;DHT22;231;48.120;11.576;2023-09-30T12:43:23;33.20;1.00
490;DHT22;231;48.120;11.576;2023-09-30T12:45:50;32.50;1.00
490;DHT22;231;48.120;11.576;2023-09-30T12:48:17;31.70;1.00
490;DHT22;231;48.120;11.576;2023-09-30T12:50:44;30.90;1.00
490;DHT22;231;48.120;11.576;2023-09-30T12:53:11;30.20;1.00
490;DHT22;231;48.120;11.576;2023-09-30T12:55:39;29.60;1.00
490;DHT22;231;48.120;11.576;2023-09-30T12:58:08;29.20;1.00
490;DHT22;231;48.120;11.576;2023-09-30T13:00:35;28.80;1.00
490;DHT22;231;48.120;11.576;2023-09-30T13:03:03;28.50;1.00
490;DHT22;231;48.120;11.576;2023-09-30T13:05:30;28.20;1.00
490;DHT22;231;48.120;11.576;2023-09-30T13:07:57;27.80;1.00
490;DHT22;231;48.120;11.576;2023-09-30T13:10:25;27.60;1.00
490;DHT22;231;48.120;11.576;2023-09-30T13:12:52;27.40;1.00
490;DHT22;231;48.120;11.576;2023-09-30T13:15:21;27.30;1.00
490;DHT22;231;48.120;11.576;2023-09-30T13:17:50;27.30;1.00
490;DHT22;231;48.120;11.576;2023-09-30T13:20:16;27.30;1.00
490;DHT22;231;48.120;11.576;2023-09-30T13:22:44;27.30;1.00
490;DHT22;231;48.120;11.576;2023-09-30T13:25:11;27.30;1.00
490;DHT22;231;48.120;11.576;2023-09-30T13:27:39;27.30;1.00
490;DHT22;231;48.120;11.576;2023-09-30T13:30:07;27.30;1.00
490;DHT22;231;48.120;11.576;2023-09-30T13:32:37;27.50;1.00
490;DHT22;231;48.120;11.576;2023-09-30T13:35:04;27.50;1.00
490;DHT22;231;48.120;11.576;2023-09-30T13:37:32;27.50;1.00
490;DHT22;231;48.120;11.576;2023-09-30T13:39:59;27.60;1.00
490;DHT22;231;48.120;11.576;2023-09-30T13:42:28;27.60;1.00
490;DHT22;231;48.120;11.576;2023-09-30T13:44:55;27.60;1.00
490;DHT22;231;48.120;11.576;2023-09-30T13:47:24;27.40;1.00
490;DHT22;231;48.120;11.576;2023-09-30T13:49:53;27.20;1.00
490;DHT22;231;48.120;11.576;2023-09-30T13:52:21;27.00;1.00
490;DHT22;231;48.120;11.576;2023-09-30T13:54:48;26.70;1.00
490;DHT22;231;48.120;11.576;2023-09-30T13:57:15;26.70;1.00
490;DHT22;231;48.120;11.576;2023-09-30T13:59:42;26.60;1.00
490;DHT22;231;48.120;11.576;2023-09-30T14:02:09;26.40;1.00
490;DHT22;231;48.120;11.576;2023-09-30T14:04:36;26.20;1.00
490;DHT22;231;48.120;11.576;2023-09-30T14:07:04;26.10;1.00
490;DHT22;231;48.120;11.576;2023-09-30T14:09:33;25.90;1.00
490;DHT22;231;48.120;11.576;2023-09-30T14:12:00;25.70;1.00
490;DHT22;231;48.120;11.576;2023-09-30T14:14:31;25.30;1.00
490;DHT22;231;48.120;11.576;2023-09-30T14:16:58;25.10;1.00
490;DHT22;231;48.120;11.576;2023-09-30T14:19:24;24.90;1.00
490;DHT22;231;48.120;11.576;2023-09-30T14:21:51;24.70;1.00
490;DHT22;231;48.120;11.576;2023-09-30T14:24:20;24.60;1.00
490;DHT22;231;48.120;11.576;2023-09-30T14:26:46;24.50;1.00
490;DHT22;231;48.120;11.576;2023-09-30T14:29:13;24.50;1.00
490;DHT22;231;48.120;11.576;2023-09-30T14:31:40;24.60;1.00
490;DHT22;231;48.120;11.576;2023-09-30T14:34:07;24.60;1.00
490;DHT22;231;48.120;11.576;2023-09-30T14:36:34;24.50;1.00
490;DHT22;231;48.120;11.576;2023-09-30T14:39:01;24.40;1.00
490;DHT22;231;48.120;11.576;2023-09-30T14:41:31;24.30;1.00
490;DHT22;231;48.120;11.576;2023-09-30T14:44:00;24.20;1.00
490;DHT22;231;48.120;11.576;2023-09-30T14:46:29;24.00;1.00
490;DHT22;231;48.120;11.576;2023-09-30T14:48:56;23.90;1.00
490;DHT22;231;48.120;11.576;2023-09-30T14:51:23;24.00;1.00
490;DHT22;231;48.120;11.576;2023-09-30T14:53:50;24.10;1.00
490;DHT22;231;48.120;11.576;2023-09-30T14:56:18;24.10;1.00
490;DHT22;231;48.120;11.576;2023-09-30T14:58:46;24.20;1.00
490;DHT22;231;48.120;11.576;2023-09-30T15:01:13;24.30;1.00
490;DHT22;231;48.120;11.576;2023-09-30T15:03:40;24.30;1.00
490;DHT22;231;48.120;11.576;2023-09-30T15:06:07;24.30;1.00
490;DHT22;231;48.120;11.576;2023-09-30T15:08:35;24.30;1.00
490;DHT22;231;48.120;11.576;2023-09-30T15:11:02;24.20;1.00
490;DHT22;231;48.120;11.576;2023-09-30T15:13:29;24.00;1.00
490;DHT22;231;48.120;11.576;2023-09-30T15:15:58;23.90;1.00
490;DHT22;231;48.120;11.576;2023-09-30T15:18:24;23.80;1.00
490;DHT22;231;48.120;11.576;2023-09-30T15:20:52;23.60;1.00
490;DHT22;231;48.120;11.576;2023-09-30T15:23:19;23.50;1.00
490;DHT22;231;48.120;11.576;2023-09-30T15:25:46;23.50;1.00
490;DHT22;231;48.120;11.576;2023-09-30T15:28:13;23.50;1.00
490;DHT22;231;48.120;11.576;2023-09-30T15:30:40;23.50;1.00
490;DHT22;231;48.120;11.576;2023-09-30T15:33:08;23.50;1.00
490;DHT22;231;48.120;11.576;2023-09-30T15:35:35;23.40;1.00
490;DHT22;231;48.120;11.576;2023-09-30T15:38:03;23.40;1.00
490;DHT22;231;48.120;11.576;2023-09-30T15:40:31;23.20;1.00
490;DHT22;231;48.120;11.576;2023-09-30T15:42:58;23.20;1.00
490;DHT22;231;48.120;11.576;2023-09-30T15:45:25;23.10;1.00
490;DHT22;231;48.120;11.576;2023-09-30T15:47:52;22.90;1.00
490;DHT22;231;48.120;11.576;2023-09-30T15:50:21;22.70;1.00
490;DHT22;231;48.120;11.576;2023-09-30T15:52:48;22.30;1.00
490;DHT22;231;48.120;11.576;2023-09-30T15:55:15;22.00;1.00
490;DHT22;231;48.120;11.576;2023-09-30T15:57:42;21.70;1.00
490;DHT22;231;48.120;11.576;2023-09-30T16:00:11;21.50;1.00
490;DHT22;231;48.120;11.576;2023-09-30T16:02:38;21.30;1.00
490;DHT22;231;48.120;11.576;2023-09-30T16:05:06;21.10;1.00
490;DHT22;231;48.120;11.576;2023-09-30T16:07:34;21.00;1.00
490;DHT22;231;48.120;11.576;2023-09-30T16:10:01;20.80;1.00
490;DHT22;231;48.120;11.576;2023-09-30T16:12:28;20.70;1.10
490;DHT22;231;48.120;11.576;2023-09-30T16:14:55;20.70;1.20
490;DHT22;231;48.120;11.576;2023-09-30T16:17:22;20.70;1.20
490;DHT22;231;48.120;11.576;2023-09-30T16:19:49;20.60;1.30
490;DHT22;231;48.120;11.576;2023-09-30T16:22:16;20.60;1.20
490;DHT22;231;48.120;11.576;2023-09-30T16:24:44;20.50;1.20
490;DHT22;231;48.120;11.576;2023-09-30T16:27:11;20.50;1.80
490;DHT22;231;48.120;11.576;2023-09-30T16:29:38;20.40;1.90
490;DHT22;231;48.120;11.576;2023-09-30T16:32:05;20.20;2.30
490;DHT22;231;48.120;11.576;2023-09-30T16:34:33;20.00;3.00
490;DHT22;231;48.120;11.576;2023-09-30T16:37:01;19.90;3.40
490;DHT22;231;48.120;11.576;2023-09-30T16:39:29;19.70;3.80
490;DHT22;231;48.120;11.576;2023-09-30T16:41:57;19.50;4.20
490;DHT22;231;48.120;11.576;2023-09-30T16:44:23;19.30;4.80
490;DHT22;231;48.120;11.576;2023-09-30T16:46:51;19.10;5.40
490;DHT22;231;48.120;11.576;2023-09-30T16:49:18;18.90;5.90
490;DHT22;231;48.120;11.576;2023-09-30T16:51:45;18.60;6.40
490;DHT22;231;48.120;11.576;2023-09-30T16:54:12;18.40;7.00
490;DHT22;231;48.120;11.576;2023-09-30T16:56:39;18.20;7.50
490;DHT22;231;48.120;11.576;2023-09-30T16:59:08;18.00;8.20
490;DHT22;231;48.120;11.576;2023-09-30T17:01:35;17.80;8.50
490;DHT22;231;48.120;11.576;2023-09-30T17:04:03;17.70;9.30
490;DHT22;231;48.120;11.576;2023-09-30T17:06:30;17.60;10.10
490;DHT22;231;48.120;11.576;2023-09-30T17:08:56;17.40;10.50
490;DHT22;231;48.120;11.576;2023-09-30T17:11:23;17.30;11.10
490;DHT22;231;48.120;11.576;2023-09-30T17:13:50;17.30;11.40
490;DHT22;231;48.120;11.576;2023-09-30T17:16:19;17.30;11.70
490;DHT22;231;48.120;11.576;2023-09-30T17:18:46;17.20;11.80
490;DHT22;231;48.120;11.576;2023-09-30T17:21:13;17.20;12.10
490;DHT22;231;48.120;11.576;2023-09-30T17:23:40;17.10;12.60
490;DHT22;231;48.120;11.576;2023-09-30T17:26:07;17.00;13.10
490;DHT22;231;48.120;11.576;2023-09-30T17:28:34;16.90;13.80
490;DHT22;231;48.120;11.576;2023-09-30T17:31:01;16.80;14.60
490;DHT22;231;48.120;11.576;2023-09-30T17:33:31;16.60;15.10
490;DHT22;231;48.120;11.576;2023-09-30T17:36:01;16.50;15.50
490;DHT22;231;48.120;11.576;2023-09-30T17:38:29;16.40;16.00
490;DHT22;231;48.120;11.576;2023-09-30T17:40:59;16.30;16.50
490;DHT22;231;48.120;11.576;2023-09-30T17:43:27;16.20;17.20
490;DHT22;231;48.120;11.576;2023-09-30T17:45:54;16.10;18.90
490;DHT22;231;48.120;11.576;2023-09-30T17:48:20;16.10;19.40
490;DHT22;231;48.120;11.576;2023-09-30T17:50:50;16.10;20.50
490;DHT22;231;48.120;11.576;2023-09-30T17:53:17;16.00;20.80
490;DHT22;231;48.120;11.576;2023-09-30T17:55:44;16.00;21.00
490;DHT22;231;48.120;11.576;2023-09-30T17:58:10;15.90;21.30
490;DHT22;231;48.120;11.576;2023-09-30T18:00:37;15.80;22.70
490;DHT22;231;48.120;11.576;2023-09-30T18:03:04;15.80;23.30
490;DHT22;231;48.120;11.576;2023-09-30T18:05:31;15.70;23.30
490;DHT22;231;48.120;11.576;2023-09-30T18:07:59;15.60;24.10
490;DHT22;231;48.120;11.576;2023-09-30T18:10:26;15.60;25.00
490;DHT22;231;48.120;11.576;2023-09-30T18:12:53;15.50;25.40
490;DHT22;231;48.120;11.576;2023-09-30T18:15:20;15.40;26.70
490;DHT22;231;48.120;11.576;2023-09-30T18:17:48;15.40;28.00
490;DHT22;231;48.120;11.576;2023-09-30T18:20:15;15.30;28.00
490;DHT22;231;48.120;11.576;2023-09-30T18:22:41;15.30;28.30
490;DHT22;231;48.120;11.576;2023-09-30T18:25:11;15.20;28.00
490;DHT22;231;48.120;11.576;2023-09-30T18:27:38;15.20;27.60
490;DHT22;231;48.120;11.576;2023-09-30T18:30:06;15.10;27.10
490;DHT22;231;48.120;11.576;2023-09-30T18:32:34;15.00;28.10
490;DHT22;231;48.120;11.576;2023-09-30T18:35:01;15.00;29.60
490;DHT22;231;48.120;11.576;2023-09-30T18:37:29;15.00;31.10
490;DHT22;231;48.120;11.576;2023-09-30T18:39:56;14.90;32.10
490;DHT22;231;48.120;11.576;2023-09-30T18:42:24;14.80;33.30
490;DHT22;231;48.120;11.576;2023-09-30T18:44:51;14.80;35.00
490;DHT22;231;48.120;11.576;2023-09-30T18:47:18;14.80;36.70
490;DHT22;231;48.120;11.576;2023-09-30T18:49:45;14.70;38.00
490;DHT22;231;48.120;11.576;2023-09-30T18:52:12;14.60;38.70
490;DHT22;231;48.120;11.576;2023-09-30T18:54:39;14.60;40.80
490;DHT22;231;48.120;11.576;2023-09-30T18:57:05;14.50;42.50
490;DHT22;231;48.120;11.576;2023-09-30T18:59:34;14.50;44.10
490;DHT22;231;48.120;11.576;2023-09-30T19:02:04;14.50;45.70
490;DHT22;231;48.120;11.576;2023-09-30T19:04:31;14.50;47.30
490;DHT22;231;48.120;11.576;2023-09-30T19:06:58;14.50;47.90
490;DHT22;231;48.120;11.576;2023-09-30T19:09:26;14.40;48.40
490;DHT22;231;48.120;11.576;2023-09-30T19:11:53;14.50;49.10
490;DHT22;231;48.120;11.576;2023-09-30T19:14:20;14.50;49.50
490;DHT22;231;48.120;11.576;2023-09-30T19:16:50;14.50;50.00
490;DHT22;231;48.120;11.576;2023-09-30T19:19:17;14.50;50.20
490;DHT22;231;48.120;11.576;2023-09-30T19:21:43;14.40;50.30
490;DHT22;231;48.120;11.576;2023-09-30T19:24:11;14.40;51.00
490;DHT22;231;48.120;11.576;2023-09-30T19:26:38;14.30;52.10
490;DHT22;231;48.120;11.576;2023-09-30T19:29:05;14.30;53.20
490;DHT22;231;48.120;11.576;2023-09-30T19:31:32;14.20;55.00
490;DHT22;231;48.120;11.576;2023-09-30T19:34:00;14.20;56.80
490;DHT22;231;48.120;11.576;2023-09-30T19:36:27;14.10;58.50
490;DHT22;231;48.120;11.576;2023-09-30T19:38:54;14.00;59.60
490;DHT22;231;48.120;11.576;2023-09-30T19:41:21;14.00;61.10
490;DHT22;231;48.120;11.576;2023-09-30T19:43:49;13.90;63.00
490;DHT22;231;48.120;11.576;2023-09-30T19:46:16;13.90;65.00
490;DHT22;231;48.120;11.576;2023-09-30T19:48:43;13.80;66.70
490;DHT22;231;48.120;11.576;2023-09-30T19:51:12;13.80;68.20
490;DHT22;231;48.120;11.576;2023-09-30T19:53:40;13.70;69.20
490;DHT22;231;48.120;11.576;2023-09-30T19:56:07;13.70;70.40
490;DHT22;231;48.120;11.576;2023-09-30T19:58:34;13.60;71.40
490;DHT22;231;48.120;11.576;2023-09-30T20:01:06;13.50;72.70
490;DHT22;231;48.120;11.576;2023-09-30T20:03:33;13.40;74.40
490;DHT22;231;48.120;11.576;2023-09-30T20:06:00;13.40;75.90
490;DHT22;231;48.120;11.576;2023-09-30T20:08:28;13.30;77.60
490;DHT22;231;48.120;11.576;2023-09-30T20:10:56;13.30;79.40
490;DHT22;231;48.120;11.576;2023-09-30T20:13:23;13.30;80.80
490;DHT22;231;48.120;11.576;2023-09-30T20:15:50;13.30;82.50
490;DHT22;231;48.120;11.576;2023-09-30T20:18:16;13.20;83.60
490;DHT22;231;48.120;11.576;2023-09-30T20:20:43;13.20;84.40
490;DHT22;231;48.120;11.576;2023-09-30T20:23:10;13.10;85.30
490;DHT22;231;48.120;11.576;2023-09-30T20:25:39;13.10;87.00
490;DHT22;231;48.120;11.576;2023-09-30T20:28:06;13.10;88.80
490;DHT22;231;48.120;11.576;2023-09-30T20:30:34;13.00;89.80
490;DHT22;231;48.120;11.576;2023-09-30T20:33:01;13.00;90.10
490;DHT22;231;48.120;11.576;2023-09-30T20:35:28;12.90;90.40
490;DHT22;231;48.120;11.576;2023-09-30T20:37:55;12.90;91.10
490;DHT22;231;48.120;11.576;2023-09-30T20:40:22;12.90;91.60
490;DHT22;231;48.120;11.576;2023-09-30T20:42:50;12.80;91.80
490;DHT22;231;48.120;11.576;2023-09-30T20:45:18;12.80;92.10
490;DHT22;231;48.120;11.576;2023-09-30T20:47:46;12.80;92.60
490;DHT22;231;48.120;11.576;2023-09-30T20:50:13;12.70;93.00